KHUA/HUA METAR and TAF weather

Enter ICAO airport designator
Station Type Date Time Source
KHUA METAR 2019/12/14 18:58 UTC NOAA

KHUA 141858Z AUTO 28006KT 10SM CLR 10/03 A2981 RMK AO2 SLP096 T00990032


Station Type Date Time Source
KHUA Decoded METAR 2019/12/14 18:58 UTC NOAA

Station name not available
Dec 14, 2019 - 01:58 PM EST / 2019.12.14 1858 UTC
Wind: from the W (280 degrees) at 7 MPH (6 KT):0
Visibility: 10 mile(s):0
Sky conditions: clear
Temperature: 49.8 F (9.9 C)
Dew Point: 37.8 F (3.2 C)
Relative Humidity: 63%
Pressure (altimeter): 29.81 in. Hg (1009 hPa)
ob: KHUA 141858Z AUTO 28006KT 10SM CLR 10/03 A2981 RMK AO2 SLP096 T00990032
cycle: 19

Station Type Date Time Source
KHUA TAF UTC NOAA

Error!

Example: see airport list